Time;durP1;ratioP1;P1;durP2;ratioP2;P2;SDS_P1;SDS_P2;PMS_P1;PMS_P2;Temp;Humidity;BMP_temperature;BMP_pressure;BME280_temperature;BME280_humidity;BME280_pressure;Samples;Min_cycle;Max_cycle;Signal;HPM_P1;HPM_P2
2023/01/03 00:01:57;;;;;;;13.35;7.22;;;;;;;7.89;77.26;100664.59;5033113;28;20088;-77
2023/01/03 00:04:24;;;;;;;12.18;7.40;;;;;;;7.88;77.00;100660.22;5032907;28;20049;-78
2023/01/03 00:06:52;;;;;;;14.38;6.93;;;;;;;7.87;76.94;100663.75;5015576;28;20069;-77
2023/01/03 00:09:21;;;;;;;12.75;6.40;;;;;;;7.85;76.65;100661.19;5033098;28;20075;-78
2023/01/03 00:14:37;;;;;;;10.77;6.55;;;;;;;7.85;76.84;100663.81;5033099;28;20053;-78
2023/01/03 00:17:05;;;;;;;12.20;7.68;;;;;;;7.85;77.04;100676.06;5032664;28;20510;-77
2023/01/03 00:19:35;;;;;;;11.35;7.13;;;;;;;7.83;76.39;100670.88;5032790;28;20680;-77
2023/01/03 00:22:02;;;;;;;9.88;7.38;;;;;;;7.82;76.78;100671.78;5032887;28;20057;-78
2023/01/03 00:24:29;;;;;;;13.02;7.28;;;;;;;7.81;76.76;100670.03;5032976;28;20060;-78
2023/01/03 00:26:55;;;;;;;10.63;7.45;;;;;;;7.80;76.79;100676.19;5032423;28;20059;-76
2023/01/03 00:29:21;;;;;;;17.35;7.95;;;;;;;7.79;76.73;100675.34;5032713;28;20140;-77
2023/01/03 00:31:48;;;;;;;9.57;7.35;;;;;;;7.77;76.85;100684.16;5032460;28;20053;-77
2023/01/03 00:34:15;;;;;;;14.32;7.22;;;;;;;7.76;76.70;100685.94;5032737;28;20061;-78
2023/01/03 00:36:41;;;;;;;16.08;8.25;;;;;;;7.75;76.91;100685.97;5031994;28;20136;-78
2023/01/03 00:39:10;;;;;;;10.02;7.82;;;;;;;7.74;76.82;100687.72;5032611;28;20486;-78
2023/01/03 00:41:38;;;;;;;12.88;7.22;;;;;;;7.73;76.85;100687.78;5032228;28;20053;-78
2023/01/03 00:44:05;;;;;;;13.13;7.88;;;;;;;7.71;76.80;100690.44;5032700;28;20057;-78
2023/01/03 00:46:32;;;;;;;12.35;8.48;;;;;;;7.68;76.93;100686.16;5032303;28;20050;-76
2023/01/03 00:48:59;;;;;;;15.05;8.68;;;;;;;7.68;77.05;100687.91;5032604;28;20123;-78
2023/01/03 00:51:30;;;;;;;15.18;9.45;;;;;;;7.66;76.73;100687.97;5031850;28;20083;-77
2023/01/03 00:53:58;;;;;;;15.77;9.50;;;;;;;7.65;77.15;100693.25;5031416;28;20054;-78
2023/01/03 00:56:28;;;;;;;15.00;9.15;;;;;;;7.65;77.11;100698.47;5014103;28;20057;-77
2023/01/03 00:58:54;;;;;;;13.38;9.57;;;;;;;7.64;77.49;100691.53;5030749;28;20057;-77
2023/01/03 01:01:27;;;;;;;18.90;10.57;;;;;;;7.64;78.04;100699.38;5029051;28;20057;-78
2023/01/03 01:03:58;;;;;;;15.98;10.38;;;;;;;7.64;78.01;100689.78;5031418;28;20064;-77
2023/01/03 01:06:30;;;;;;;15.65;10.85;;;;;;;7.67;78.40;100688.81;5031856;28;20134;-77
2023/01/03 01:08:59;;;;;;;15.15;10.90;;;;;;;7.71;78.07;100689.59;5016423;28;20054;-78
2023/01/03 01:11:26;;;;;;;18.88;11.13;;;;;;;7.72;78.02;100691.28;5031723;28;20517;-77
2023/01/03 01:13:54;;;;;;;17.48;10.98;;;;;;;7.74;78.09;100695.59;5031912;28;20053;-77
2023/01/03 01:16:26;;;;;;;16.90;11.02;;;;;;;7.73;77.40;100687.78;5031764;28;20056;-79
2023/01/03 01:18:53;;;;;;;20.58;11.73;;;;;;;7.76;77.81;100698.16;5031542;28;20080;-79
2023/01/03 01:21:22;;;;;;;16.45;11.10;;;;;;;7.75;77.84;100696.44;5031580;28;20167;-77
2023/01/03 01:23:49;;;;;;;19.00;12.63;;;;;;;7.75;77.93;100699.06;5031840;28;20061;-78
2023/01/03 01:26:18;;;;;;;21.15;12.85;;;;;;;7.75;77.95;100701.69;5013928;28;20123;-77
2023/01/03 01:28:46;;;;;;;16.70;12.02;;;;;;;7.76;78.24;100706.03;5031427;28;20132;-78
2023/01/03 01:31:15;;;;;;;22.88;13.52;;;;;;;7.76;78.13;100709.50;5031213;28;20502;-78
2023/01/03 01:33:42;;;;;;;24.10;13.90;;;;;;;7.79;78.80;100716.44;5031380;28;20074;-77
2023/01/03 01:36:14;;;;;;;27.30;14.20;;;;;;;7.80;78.86;100721.63;5031280;28;20053;-77
2023/01/03 01:38:41;;;;;;;23.05;14.68;;;;;;;7.85;79.31;100721.47;5031479;28;20080;-76
2023/01/03 01:41:12;;;;;;;23.33;14.38;;;;;;;7.87;78.96;100722.28;5013674;28;20061;-77
2023/01/03 01:46:43;;;;;;;26.13;14.55;;;;;;;7.99;79.44;100722.84;5030237;28;20166;-78
2023/01/03 01:49:19;;;;;;;26.35;14.55;;;;;;;8.01;78.96;100735.00;5031439;28;20136;-77
2023/01/03 01:51:46;;;;;;;22.77;14.68;;;;;;;8.07;79.48;100737.41;5031078;28;20054;-79
2023/01/03 01:54:12;;;;;;;20.35;14.38;;;;;;;8.11;79.15;100735.56;5031246;28;20045;-76
2023/01/03 01:56:43;;;;;;;23.08;14.65;;;;;;;8.14;78.89;100734.59;5030536;28;20053;-78
2023/01/03 01:59:11;;;;;;;23.55;15.38;;;;;;;8.16;78.72;100736.28;5031216;28;20152;-77
2023/01/03 02:01:38;;;;;;;23.38;15.38;;;;;;;8.17;78.69;100740.63;5030945;28;20057;-78
2023/01/03 02:04:18;;;;;;;25.13;16.02;;;;;;;8.17;77.95;100734.50;5031032;28;20158;-77
2023/01/03 02:06:44;;;;;;;23.08;14.60;;;;;;;8.18;78.13;100747.56;5030818;28;20068;-76
2023/01/03 02:09:11;;;;;;;21.60;15.95;;;;;;;8.17;77.92;100748.50;5030521;28;20060;-77
2023/01/03 02:13:04;;;;;;;23.75;16.48;;;;;;;8.13;77.26;100753.88;5030846;28;20089;-78
2023/01/03 02:14:58;;;;;;;24.83;16.10;;;;;;;8.16;78.01;100757.28;5030558;28;20108;-77
2023/01/03 02:17:40;;;;;;;24.30;16.08;;;;;;;8.16;78.14;100754.66;5030333;28;20065;-77
2023/01/03 02:20:30;;;;;;;24.23;15.75;;;;;;;8.15;78.23;100758.16;5030906;28;20049;-78
2023/01/03 02:23:00;;;;;;;24.30;15.88;;;;;;;8.16;78.58;100757.28;5030533;28;20482;-78
2023/01/03 02:25:35;;;;;;;29.65;15.75;;;;;;;8.20;78.95;100750.16;5030394;28;20421;-78
2023/01/03 02:28:08;;;;;;;24.55;15.65;;;;;;;8.19;78.20;100749.28;5030213;28;20137;-77
2023/01/03 02:30:36;;;;;;;26.55;17.42;;;;;;;8.23;79.01;100750.06;5030632;28;20087;-78
2023/01/03 02:33:17;;;;;;;30.52;16.08;;;;;;;8.23;78.14;100757.06;5030504;28;20516;-78
2023/01/03 02:36:05;;;;;;;25.27;17.30;;;;;;;8.24;77.89;100754.41;5030287;28;20520;-78
2023/01/03 02:38:47;;;;;;;26.05;16.33;;;;;;;8.28;77.89;100760.41;5030125;28;20084;-79
2023/01/03 02:41:32;;;;;;;27.08;16.85;;;;;;;8.31;78.63;100761.19;5030620;28;20099;-78
2023/01/03 02:44:24;;;;;;;23.65;16.45;;;;;;;8.30;77.85;100766.47;5030271;28;20509;-78
2023/01/03 02:47:03;;;;;;;26.73;16.38;;;;;;;8.34;77.85;100775.97;5012416;28;20057;-79
2023/01/03 02:49:37;;;;;;;26.67;16.25;;;;;;;8.35;78.16;100785.53;5030743;28;20061;-79
2023/01/03 02:52:08;;;;;;;26.58;16.90;;;;;;;8.37;78.26;100777.63;5030313;28;20052;-79
2023/01/03 02:54:42;;;;;;;29.55;16.83;;;;;;;8.38;77.96;100781.97;4766935;22;20887;-77
2023/01/03 02:57:16;;;;;;;26.52;17.45;;;;;;;8.38;78.30;100780.22;4994528;28;20057;-77
2023/01/03 02:59:56;;;;;;;24.75;17.42;;;;;;;8.39;77.80;100792.41;4992854;28;20057;-77
2023/01/03 03:02:33;;;;;;;26.20;16.85;;;;;;;8.43;77.94;100786.16;4993451;28;20050;-78
2023/01/03 03:05:04;;;;;;;29.42;17.17;;;;;;;8.45;78.26;100784.34;5010697;28;20141;-78
2023/01/03 03:07:34;;;;;;;26.42;17.35;;;;;;;8.46;78.14;100779.97;5010530;28;20173;-78
2023/01/03 03:15:58;;;;;;;27.88;18.20;;;;;;;8.46;77.80;100780.81;5010610;28;20049;-78
2023/01/03 03:18:51;;;;;;;27.70;18.17;;;;;;;8.43;77.18;100788.78;4985744;28;20058;-78
2023/01/03 03:30:01;;;;;;;28.77;17.67;;;;;;;8.52;77.98;100786.78;5010081;28;20064;-76
2023/01/03 03:32:30;;;;;;;26.65;17.30;;;;;;;8.51;78.10;100785.03;5010220;28;20490;-78
2023/01/03 03:35:00;;;;;;;31.20;18.92;;;;;;;8.52;78.14;100777.13;5009669;28;20060;-77
2023/01/03 03:37:30;;;;;;;25.35;18.00;;;;;;;8.52;77.94;100771.88;5009854;28;20050;-78
2023/01/03 03:45:42;;;;;;;25.52;17.88;;;;;;;8.47;76.95;100779.91;5009937;28;20049;-78
2023/01/03 03:51:31;;;;;;;34.53;18.92;;;;;;;8.40;76.52;100782.75;4998676;28;20105;-77
2023/01/03 03:54:02;;;;;;;29.20;17.45;;;;;;;8.35;76.82;100785.53;5009968;28;20057;-77
2023/01/03 03:56:31;;;;;;;25.50;17.88;;;;;;;8.33;77.43;100775.09;4992284;28;20046;-78
2023/01/03 03:59:04;;;;;;;28.50;18.70;;;;;;;8.31;76.73;100783.94;5009689;28;20101;-76
2023/01/03 04:01:32;;;;;;;29.05;18.52;;;;;;;8.31;77.35;100784.78;5010215;28;20070;-77
2023/01/03 04:04:04;;;;;;;29.85;19.63;;;;;;;8.29;76.79;100783.97;5009816;28;20050;-77
2023/01/03 04:06:46;;;;;;;30.20;20.47;;;;;;;8.25;76.43;100789.34;5009717;28;20053;-77
2023/01/03 04:09:13;;;;;;;30.63;18.98;;;;;;;8.25;77.02;100789.34;5010006;28;20053;-77
2023/01/03 04:11:40;;;;;;;31.95;19.33;;;;;;;8.21;76.85;100789.47;5012753;28;20054;-77
2023/01/03 04:14:06;;;;;;;25.63;18.73;;;;;;;8.16;77.01;100790.50;5013337;28;20105;-77
2023/01/03 04:16:33;;;;;;;32.53;18.85;;;;;;;8.14;77.41;100798.41;5013052;28;20136;-77
2023/01/03 04:19:00;;;;;;;28.38;19.70;;;;;;;8.11;77.26;100795.88;5012162;28;20112;-78
2023/01/03 04:21:26;;;;;;;31.02;20.65;;;;;;;8.07;76.98;100802.09;5013361;28;20136;-77
2023/01/03 04:23:53;;;;;;;31.52;20.23;;;;;;;8.04;77.26;100803.06;4995667;28;20141;-77
2023/01/03 04:26:20;;;;;;;30.10;18.20;;;;;;;8.01;77.13;100805.78;5013038;28;20144;-76
2023/01/03 04:28:46;;;;;;;28.27;19.38;;;;;;;7.99;77.59;100804.13;5012784;28;20089;-77
2023/01/03 04:31:13;;;;;;;28.95;20.05;;;;;;;7.97;77.58;100804.16;5012943;28;20068;-77
2023/01/03 04:33:39;;;;;;;31.63;19.88;;;;;;;7.95;78.08;100804.19;5012877;28;20070;-76
2023/01/03 04:36:06;;;;;;;30.17;19.58;;;;;;;7.93;77.77;100800.75;5012890;28;20058;-76
2023/01/03 04:38:33;;;;;;;34.28;21.17;;;;;;;7.93;77.69;100795.50;5012984;28;20144;-77
2023/01/03 04:41:07;;;;;;;29.38;19.60;;;;;;;7.92;77.69;100798.16;4995188;28;20062;-76
2023/01/03 04:46:20;;;;;;;28.38;19.83;;;;;;;7.94;77.66;100799.88;5012794;28;20104;-77
2023/01/03 04:48:47;;;;;;;28.23;19.23;;;;;;;7.94;76.83;100805.13;5012684;28;20058;-76
2023/01/03 04:51:14;;;;;;;30.17;18.67;;;;;;;7.93;76.53;100810.41;5012422;28;20494;-77
2023/01/03 04:53:40;;;;;;;24.80;17.52;;;;;;;7.89;76.19;100814.84;5012477;28;20065;-78
2023/01/03 04:56:07;;;;;;;27.55;19.65;;;;;;;7.86;75.96;100814.09;4994782;28;20501;-78
2023/01/03 04:58:34;;;;;;;25.92;17.95;;;;;;;7.79;75.39;100816.91;5012533;28;20144;-77
2023/01/03 05:01:06;;;;;;;28.08;18.35;;;;;;;7.72;75.17;100814.47;5000699;28;20050;-77
2023/01/03 05:03:33;;;;;;;;;;;;;;;7.68;75.39;100811.09;5012801;28;20506;-76
2023/01/03 05:06:01;;;;;;;25.27;16.77;;;;;;;7.65;75.50;100809.41;5010846;28;20309;-77
2023/01/03 05:08:28;;;;;;;24.40;18.13;;;;;;;7.59;75.87;100806.94;4994615;28;20060;-77
2023/01/03 05:10:55;;;;;;;24.70;17.58;;;;;;;7.53;75.69;100805.38;5012233;28;20101;-77
2023/01/03 05:13:22;;;;;;;26.95;18.15;;;;;;;7.48;76.03;100809.00;5012121;28;20065;-76
2023/01/03 05:15:49;;;;;;;24.63;18.30;;;;;;;7.43;76.22;100807.38;5012140;28;20060;-77
2023/01/03 05:18:16;;;;;;;26.95;18.80;;;;;;;7.39;75.75;100808.38;5011903;28;20102;-77
2023/01/03 05:26:17;;;;;;;29.02;19.50;;;;;;;7.26;76.30;100818.28;5012105;28;20049;-78
2023/01/03 05:28:47;;;;;;;33.47;20.83;;;;;;;7.23;76.26;100825.38;5011466;28;20137;-77
2023/01/03 05:31:13;;;;;;;33.00;21.05;;;;;;;7.20;76.76;100823.69;4994628;28;20065;-77
2023/01/03 05:33:40;;;;;;;30.63;20.42;;;;;;;7.16;76.57;100822.06;5011383;28;20088;-77
2023/01/03 05:36:08;;;;;;;30.15;20.38;;;;;;;7.12;76.71;100829.13;5011803;28;20077;-77
2023/01/03 05:38:36;;;;;;;33.38;21.55;;;;;;;7.10;77.33;100824.84;5011749;28;20054;-77
2023/01/03 05:41:04;;;;;;;31.98;20.45;;;;;;;7.08;76.92;100831.84;4994232;28;20157;-76
2023/01/03 05:43:30;;;;;;;33.63;22.05;;;;;;;7.06;77.37;100831.88;4994045;28;20527;-78
2023/01/03 05:45:57;;;;;;;33.78;21.98;;;;;;;7.03;76.95;100839.84;5011847;28;20061;-78
2023/01/03 05:48:23;;;;;;;29.05;20.77;;;;;;;7.02;77.37;100838.09;5011192;28;20152;-76
2023/01/03 05:50:51;;;;;;;32.78;20.38;;;;;;;7.01;77.41;100844.25;5011570;28;20057;-77
2023/01/03 05:53:17;;;;;;;38.03;24.20;;;;;;;6.99;77.31;100843.44;4993950;28;20057;-78
2023/01/03 05:55:44;;;;;;;30.42;21.00;;;;;;;6.98;77.66;100839.06;5011041;28;20396;-77
2023/01/03 05:58:11;;;;;;;33.08;21.13;;;;;;;6.96;77.59;100839.13;4993746;28;20058;-77
2023/01/03 06:00:38;;;;;;;32.38;21.23;;;;;;;6.96;77.55;100847.00;5011026;28;20057;-78
2023/01/03 06:03:05;;;;;;;34.42;20.90;;;;;;;6.94;77.40;100842.66;5011135;28;20732;-77
2023/01/03 06:05:31;;;;;;;33.35;21.33;;;;;;;6.95;77.45;100841.78;5010770;28;20152;-77
2023/01/03 06:08:00;;;;;;;32.25;21.08;;;;;;;6.93;77.68;100849.69;5010980;28;20574;-77
2023/01/03 06:10:27;;;;;;;28.88;21.48;;;;;;;6.92;77.67;100853.19;5010853;28;20058;-77
2023/01/03 06:12:54;;;;;;;33.22;23.42;;;;;;;6.90;77.91;100850.59;5011068;28;20058;-79
2023/01/03 06:15:21;;;;;;;36.30;23.65;;;;;;;6.89;78.28;100848.88;5010732;28;20140;-77
2023/01/03 06:17:53;;;;;;;32.90;22.48;;;;;;;6.90;78.13;100853.22;5010949;28;20050;-77
2023/01/03 06:20:20;;;;;;;33.20;21.10;;;;;;;6.91;78.71;100862.78;5011336;28;20141;-77
2023/01/03 06:22:46;;;;;;;38.58;23.77;;;;;;;6.93;78.62;100859.28;5010666;28;20144;-77
2023/01/03 06:25:13;;;;;;;32.63;21.65;;;;;;;6.95;78.74;100860.13;5010915;28;20068;-76
2023/01/03 06:27:40;;;;;;;35.97;22.85;;;;;;;6.97;78.58;100860.91;5010510;28;20061;-77
2023/01/03 06:30:07;;;;;;;38.25;22.58;;;;;;;6.96;78.46;100849.59;5010831;28;20062;-77
2023/01/03 06:32:34;;;;;;;32.67;22.95;;;;;;;6.99;78.64;100853.91;5010186;28;20054;-77
2023/01/03 06:35:00;;;;;;;33.22;22.63;;;;;;;7.00;78.69;100858.25;4993099;28;20502;-77
2023/01/03 06:37:27;;;;;;;35.53;24.05;;;;;;;7.01;78.46;100860.81;5010498;28;20141;-77
2023/01/03 06:39:53;;;;;;;37.65;23.92;;;;;;;7.02;79.06;100861.66;5010736;28;20495;-77
2023/01/03 06:53:25;;;;;;;36.28;24.33;;;;;;;7.11;78.66;100878.91;5010301;28;20490;-77
2023/01/03 06:55:52;;;;;;;35.03;22.65;;;;;;;7.10;79.09;100875.44;5010296;28;20052;-77
2023/01/03 06:58:22;;;;;;;38.28;25.80;;;;;;;7.11;78.98;100886.78;4993701;28;20089;-78
2023/01/03 07:00:53;;;;;;;35.47;23.52;;;;;;;7.09;78.92;100892.03;4992768;28;20506;-76
2023/01/03 07:03:20;;;;;;;33.20;23.20;;;;;;;7.09;78.68;100889.44;5010501;28;20065;-77
2023/01/03 07:05:47;;;;;;;31.08;22.65;;;;;;;7.09;78.79;100892.03;5008383;28;20275;-77
2023/01/03 07:08:14;;;;;;;36.17;22.23;;;;;;;7.09;78.66;100891.16;5004858;28;20108;-77
2023/01/03 07:10:41;;;;;;;32.67;22.05;;;;;;;7.07;78.67;100887.75;5010071;28;20061;-77
2023/01/03 07:15:52;;;;;;;28.23;20.63;;;;;;;7.07;78.51;100878.16;5012472;28;20629;-77
2023/01/03 07:18:19;;;;;;;33.30;22.45;;;;;;;7.05;77.96;100872.06;5014969;28;20060;-77
2023/01/03 07:20:46;;;;;;;36.45;23.10;;;;;;;7.03;77.97;100879.13;5011125;28;20057;-76
2023/01/03 07:23:13;;;;;;;28.92;21.10;;;;;;;7.01;77.51;100886.13;4998123;28;20058;-77
2023/01/03 07:25:42;;;;;;;34.63;22.13;;;;;;;6.98;77.20;100875.72;5012659;28;20111;-77
2023/01/03 07:28:11;;;;;;;32.30;21.73;;;;;;;6.93;76.94;100886.31;5009875;28;20570;-77
2023/01/03 07:30:39;;;;;;;29.40;21.38;;;;;;;6.91;77.26;100890.72;5010390;28;20145;-77
2023/01/03 07:33:10;;;;;;;36.58;22.55;;;;;;;6.87;77.01;100891.69;5010163;28;20057;-77
2023/01/03 07:35:37;;;;;;;32.92;21.27;;;;;;;6.86;77.82;100895.19;5010327;28;20065;-76
2023/01/03 07:38:05;;;;;;;30.65;21.25;;;;;;;6.85;78.26;100896.97;5010036;28;20140;-77
2023/01/03 07:40:32;;;;;;;34.83;22.67;;;;;;;6.85;78.77;100896.97;5010264;28;20121;-76
2023/01/03 07:45:45;;;;;;;33.80;22.20;;;;;;;6.88;78.60;100898.66;5011939;28;20148;-77
2023/01/03 07:48:12;;;;;;;31.67;22.58;;;;;;;6.89;78.81;100903.84;5013709;28;20062;-77
2023/01/03 07:50:40;;;;;;;32.55;21.75;;;;;;;6.91;78.90;100898.56;5013874;28;20057;-77
2023/01/03 07:53:07;;;;;;;37.08;22.63;;;;;;;6.93;78.96;100903.78;5013484;28;20140;-77
2023/01/03 07:55:35;;;;;;;34.80;22.80;;;;;;;6.94;78.97;100905.47;5013610;28;20057;-76
2023/01/03 07:58:02;;;;;;;33.38;23.10;;;;;;;6.97;79.23;100901.06;5012855;28;20119;-76
2023/01/03 08:00:29;;;;;;;37.22;24.52;;;;;;;6.99;79.04;100903.66;5006741;28;20084;-76
2023/01/03 08:02:56;;;;;;;37.05;24.52;;;;;;;7.01;79.15;100899.22;4992512;28;20054;-78
2023/01/03 08:05:24;;;;;;;38.22;23.35;;;;;;;7.05;79.07;100900.88;5013069;28;20049;-76
2023/01/03 08:07:51;;;;;;;42.10;24.45;;;;;;;7.06;78.51;100899.97;4993863;28;20069;-77
2023/01/03 08:13:17;;;;;;;34.05;23.15;;;;;;;7.07;78.32;100895.59;4993807;28;20051;-78
2023/01/03 08:15:51;;;;;;;37.35;23.85;;;;;;;7.05;77.67;100895.63;4993393;28;20061;-77
2023/01/03 08:18:21;;;;;;;35.03;23.88;;;;;;;7.04;77.96;100901.78;4992059;28;20050;-78
2023/01/03 08:20:48;;;;;;;36.63;24.92;;;;;;;7.04;78.30;100905.22;5012216;28;20149;-76
2023/01/03 08:23:15;;;;;;;42.53;26.65;;;;;;;7.03;78.79;100902.69;5009395;28;20558;-77
2023/01/03 08:25:41;;;;;;;40.42;26.48;;;;;;;7.03;78.42;100911.38;5008013;28;20054;-77
2023/01/03 08:28:09;;;;;;;42.58;27.30;;;;;;;7.02;78.90;100917.50;5012831;28;20062;-77
2023/01/03 08:30:48;;;;;;;38.38;24.33;;;;;;;7.00;77.75;100903.59;4995465;28;20057;-76
2023/01/03 08:33:17;;;;;;;40.83;26.00;;;;;;;7.04;78.10;100904.38;4995724;28;20092;-76
2023/01/03 08:35:54;;;;;;;41.47;26.83;;;;;;;7.01;77.53;100907.94;5012747;28;20407;-77
2023/01/03 08:38:26;;;;;;;39.67;25.30;;;;;;;7.02;78.24;100904.41;5013126;28;20152;-77
2023/01/03 08:40:54;;;;;;;42.97;26.75;;;;;;;7.03;78.33;100913.16;5013260;28;20100;-76
2023/01/03 08:43:21;;;;;;;40.80;26.42;;;;;;;7.03;78.23;100916.59;5012276;28;20644;-77
2023/01/03 08:45:47;;;;;;;46.50;26.77;;;;;;;7.01;78.41;100915.81;5012731;28;20058;-77
2023/01/03 08:48:18;;;;;;;42.10;25.45;;;;;;;7.02;78.30;100916.63;5012654;28;20152;-77
2023/01/03 08:50:44;;;;;;;41.65;25.80;;;;;;;7.01;78.69;100901.84;5012685;28;20104;-77
2023/01/03 08:53:11;;;;;;;45.13;28.25;;;;;;;7.02;78.28;100906.16;5012331;28;20152;-76
2023/01/03 08:58:27;;;;;;;44.15;27.55;;;;;;;7.04;78.79;100905.22;5046761;23;20049;-79
2023/01/03 09:00:53;;;;;;;50.45;28.58;;;;;;;7.06;79.25;100901.75;5023778;28;20080;-79
2023/01/03 09:03:20;;;;;;;51.15;30.13;;;;;;;7.06;79.28;100910.44;5029697;28;20054;-79
2023/01/03 09:05:46;;;;;;;51.65;30.10;;;;;;;7.08;78.75;100900.81;5024937;28;20064;-80
2023/01/03 09:08:13;;;;;;;51.58;30.58;;;;;;;7.09;79.03;100901.66;5031100;28;20103;-81
2023/01/03 09:10:39;;;;;;;50.45;30.98;;;;;;;7.12;78.73;100901.59;5031134;28;20054;-80
2023/01/03 09:13:13;;;;;;;51.25;29.65;;;;;;;7.13;78.84;100901.53;5030569;28;20060;-80
2023/01/03 09:15:39;;;;;;;52.70;30.40;;;;;;;7.14;78.83;100899.81;5013359;28;20467;-80
2023/01/03 09:18:06;;;;;;;52.55;31.38;;;;;;;7.14;78.60;100905.88;5031291;28;20134;-80
2023/01/03 09:20:33;;;;;;;54.47;32.08;;;;;;;7.16;78.95;100908.47;5013608;28;20455;-80
2023/01/03 09:26:38;;;;;;;54.53;31.45;;;;;;;7.18;78.73;100906.69;5029069;23;20056;-78
2023/01/03 09:29:05;;;;;;;61.33;33.13;;;;;;;7.17;78.54;100910.19;5030882;28;20057;-77
2023/01/03 09:31:35;;;;;;;55.60;33.60;;;;;;;7.16;78.88;100904.09;5014204;28;20521;-77
2023/01/03 09:34:05;;;;;;;55.03;32.38;;;;;;;7.16;78.73;100898.88;5010653;28;20049;-78
2023/01/03 09:36:33;;;;;;;57.80;31.52;;;;;;;7.18;79.29;100901.44;5011508;28;20058;-78
2023/01/03 09:38:59;;;;;;;57.97;33.20;;;;;;;7.19;78.95;100902.28;5011734;28;20515;-78
2023/01/03 09:41:27;;;;;;;58.40;32.80;;;;;;;7.20;79.16;100910.13;5011328;28;20085;-78
2023/01/03 09:44:01;;;;;;;59.42;31.98;;;;;;;7.20;78.76;100901.38;5011229;28;20050;-79
2023/01/03 09:46:29;;;;;;;50.67;29.80;;;;;;;7.25;79.83;100912.63;4993763;28;20148;-77
2023/01/03 09:48:56;;;;;;;51.63;29.92;;;;;;;7.28;79.78;100913.41;4993234;28;20053;-78
2023/01/03 10:03:42;;;;;;;47.42;27.77;;;;;;;7.55;79.25;100910.13;5010925;28;20522;-78
2023/01/03 10:06:34;;;;;;;47.33;26.35;;;;;;;7.59;79.04;100906.50;5011140;28;20116;-78
2023/01/03 10:09:14;;;;;;;43.65;25.90;;;;;;;7.65;79.57;100901.13;5010308;28;20544;-78
2023/01/03 10:11:58;;;;;;;39.38;24.25;;;;;;;7.71;79.64;100888.75;5011341;28;20153;-78
2023/01/03 10:14:28;;;;;;;32.00;20.65;;;;;;;7.77;80.29;100886.84;5010807;28;20060;-79
2023/01/03 10:17:13;;;;;;;31.83;21.55;;;;;;;7.82;78.92;100897.22;4993389;28;20099;-79
2023/01/03 10:19:49;;;;;;;34.55;21.38;;;;;;;7.91;80.24;100896.94;5010822;28;20045;-78
2023/01/03 10:22:19;;;;;;;32.03;20.50;;;;;;;7.97;80.14;100893.31;4993686;28;20060;-78
2023/01/03 10:24:49;;;;;;;31.33;20.40;;;;;;;8.03;80.73;100903.63;5010742;28;20057;-77
2023/01/03 10:27:20;;;;;;;28.05;18.80;;;;;;;8.11;80.46;100886.81;5010343;28;20061;-78
2023/01/03 10:29:59;;;;;;;33.58;19.85;;;;;;;8.17;80.34;100890.13;5010883;28;20058;-78
2023/01/03 10:32:40;;;;;;;33.97;18.90;;;;;;;8.24;79.19;100888.19;5010521;28;20093;-78
2023/01/03 10:35:23;;;;;;;28.40;18.48;;;;;;;8.34;80.24;100879.13;4993168;28;20105;-77
2023/01/03 10:37:52;;;;;;;29.02;18.52;;;;;;;8.43;80.37;100878.00;4992617;28;20046;-77
2023/01/03 10:40:20;;;;;;;28.00;18.08;;;;;;;8.52;80.17;100876.00;5010850;28;20062;-78
2023/01/03 10:42:49;;;;;;;31.67;17.65;;;;;;;8.60;80.43;100880.13;5009933;28;20054;-77
2023/01/03 10:45:20;;;;;;;25.17;16.30;;;;;;;8.66;79.50;100879.09;5010644;28;20053;-79
2023/01/03 10:48:00;;;;;;;26.65;16.80;;;;;;;8.70;78.58;100872.84;5010349;28;20076;-78
2023/01/03 10:50:28;;;;;;;24.80;16.27;;;;;;;8.81;80.34;100883.00;4993027;28;20050;-78
2023/01/03 10:52:59;;;;;;;28.30;16.42;;;;;;;8.88;79.87;100881.03;5010256;28;20066;-78
2023/01/03 10:55:27;;;;;;;22.67;15.75;;;;;;;8.95;80.23;100881.72;5009723;28;20418;-77
2023/01/03 10:58:20;;;;;;;24.67;16.20;;;;;;;8.98;77.62;100868.47;5010246;28;20068;-78
2023/01/03 11:00:47;;;;;;;17.05;10.10;;;;;;;9.07;78.89;100872.56;5010412;28;20152;-77
2023/01/03 11:03:15;;;;;;;18.52;13.85;;;;;;;9.08;78.46;100864.63;5010463;28;20064;-77
2023/01/03 11:05:45;;;;;;;22.38;13.25;;;;;;;9.09;77.98;100873.38;5009751;28;20061;-78
2023/01/03 11:08:33;;;;;;;19.88;13.30;;;;;;;9.06;76.35;100863.84;5010643;28;20058;-78
2023/01/03 11:11:00;;;;;;;19.33;13.13;;;;;;;9.09;78.19;100855.84;4992555;28;20149;-78
2023/01/03 11:13:27;;;;;;;20.17;12.77;;;;;;;9.08;78.01;100858.53;5010279;28;20050;-78
2023/01/03 11:15:55;;;;;;;20.42;13.18;;;;;;;9.08;77.79;100859.38;5009646;28;20054;-77
2023/01/03 11:18:26;;;;;;;19.48;12.30;;;;;;;9.09;78.23;100857.63;5010464;28;20078;-77
2023/01/03 11:21:17;;;;;;;19.55;12.13;;;;;;;9.07;76.57;100852.41;5014027;28;20053;-77
2023/01/03 11:24:02;;;;;;;18.23;11.18;;;;;;;9.10;76.63;100860.22;5014051;28;20054;-79
2023/01/03 11:26:42;;;;;;;16.88;11.15;;;;;;;9.12;76.64;100853.13;5013864;28;20398;-78
2023/01/03 11:29:15;;;;;;;17.65;11.73;;;;;;;9.17;78.47;100858.25;5014621;28;20054;-77
2023/01/03 11:32:00;;;;;;;19.08;10.52;;;;;;;9.17;78.27;100846.84;5013599;28;20423;-77
2023/01/03 11:34:44;;;;;;;15.15;11.30;;;;;;;9.20;77.49;100847.59;5014097;28;20077;-78
2023/01/03 11:37:52;;;;;;;15.88;10.60;;;;;;;9.30;78.47;100836.81;5013738;28;20053;-79
2023/01/03 11:40:32;;;;;;;16.38;11.57;;;;;;;9.37;77.83;100827.78;5014199;28;20140;-77
2023/01/03 11:43:38;;;;;;;19.38;10.75;;;;;;;9.46;78.06;100837.13;5013402;28;20046;-78
2023/01/03 11:46:30;;;;;;;12.95;9.60;;;;;;;9.54;77.55;100837.72;5014208;28;20060;-78
2023/01/03 11:49:12;;;;;;;14.43;9.27;;;;;;;9.63;77.86;100828.63;5013642;28;20137;-79
2023/01/03 11:51:57;;;;;;;14.50;9.30;;;;;;;9.67;77.89;100824.97;5014196;28;20170;-79
2023/01/03 11:54:51;;;;;;;14.85;9.45;;;;;;;9.65;76.39;100826.81;5013607;28;20057;-78
2023/01/03 11:57:44;;;;;;;15.40;8.93;;;;;;;9.65;75.52;100818.94;5013686;28;20085;-77
2023/01/03 12:00:21;;;;;;;14.07;9.20;;;;;;;9.67;76.71;100824.97;5013410;28;20058;-78
2023/01/03 12:03:05;;;;;;;12.60;8.00;;;;;;;9.65;76.49;100826.81;5013746;28;20068;-78
2023/01/03 12:05:41;;;;;;;10.88;7.43;;;;;;;9.65;76.99;100817.16;5013177;28;20058;-78
2023/01/03 12:08:11;;;;;;;11.93;8.13;;;;;;;9.66;77.45;100812.75;5013668;28;20061;-78
2023/01/03 12:10:56;;;;;;;13.10;7.00;;;;;;;9.68;78.04;100815.34;5013140;28;20489;-79
2023/01/03 12:14:00;;;;;;;10.52;7.53;;;;;;;9.62;75.36;100821.66;5013387;28;20140;-78
2023/01/03 12:16:42;;;;;;;11.40;7.18;;;;;;;9.62;76.33;100819.91;5012554;28;20069;-78
2023/01/03 12:19:27;;;;;;;12.63;6.80;;;;;;;9.65;77.23;100822.41;5013694;28;20147;-78
2023/01/03 12:22:17;;;;;;;12.18;7.18;;;;;;;9.61;75.50;100820.78;5012945;28;20152;-78
2023/01/03 12:25:04;;;;;;;10.82;7.32;;;;;;;9.64;77.25;100810.19;5013000;28;20829;-79
2023/01/03 12:27:35;;;;;;;13.02;7.38;;;;;;;9.63;77.50;100813.72;4995258;28;20052;-79
2023/01/03 12:30:27;;;;;;;19.63;8.93;;;;;;;9.60;76.14;100823.47;5012882;28;20152;-79
2023/01/03 12:33:11;;;;;;;12.90;9.27;;;;;;;9.60;76.77;100812.97;4994964;28;20487;-79
2023/01/03 12:35:48;;;;;;;12.32;9.68;;;;;;;9.58;76.32;100805.16;5013006;28;20140;-77
2023/01/03 12:38:17;;;;;;;15.20;9.82;;;;;;;9.58;77.59;100813.03;5012765;28;20054;-78
2023/01/03 12:40:53;;;;;;;19.65;11.13;;;;;;;9.57;77.33;100813.09;4995540;28;20053;-77
2023/01/03 12:43:32;;;;;;;13.90;9.80;;;;;;;9.56;76.86;100812.22;5012329;28;20136;-77
2023/01/03 12:46:08;;;;;;;12.00;9.13;;;;;;;9.55;76.63;100820.16;4995399;28;20141;-77
2023/01/03 12:49:01;;;;;;;14.45;8.70;;;;;;;9.51;75.81;100816.78;4995426;28;20062;-78
2023/01/03 12:51:29;;;;;;;14.55;9.32;;;;;;;9.53;77.65;100812.31;5012663;28;20153;-77
2023/01/03 12:53:58;;;;;;;13.73;8.88;;;;;;;9.49;77.19;100816.84;5012094;28;20057;-78
2023/01/03 12:56:33;;;;;;;13.20;9.18;;;;;;;9.49;77.60;100801.06;5012655;28;20085;-77